| time (UTC) | temp F | wind direction | speed MPH | gust MPH | rain 1hr in | rain 24hr in | rain mn in | humidity % | barometer mb |
| 20260904220813 | 65 | 0.0 | 1.0 | 0.00 | 0.00 | 0.00 | 72 | 1015.9 | |
| 20260904215932 | 65 | 0.0 | 1.0 | 0.00 | 0.00 | 0.00 | 70 | 1016.1 | |
| 20260904214111 | 66 | 0.0 | 0.0 | 0.00 | 0.00 | 0.00 | 70 | 1016.4 | |
| 20260904213210 | 66 | 0.0 | 0.0 | 0.00 | 0.00 | 0.00 | 69 | 1016.3 | |
| 20260904212310 | 67 | 0.0 | 0.0 | 0.00 | 0.00 | 0.00 | 68 | 1016.3 | |
| 20260904211429 | 67 | 0.0 | 0.0 | 0.00 | 0.00 | 0.00 | 68 | 1016.3 | |
| 20260904210509 | 67 | 0.0 | 0.0 | 0.00 | 0.00 | 0.00 | 67 | 1016.3 | |
| 20260904205608 | 67 | 0.0 | 0.0 | 0.00 | 0.00 | 0.00 | 66 | 1016.3 | |
| 20260904204707 | 67 | 0.0 | 0.0 | 0.00 | 0.00 | 0.00 | 65 | 1016.5 | |
| 20260904203806 | 68 | 0.0 | 1.0 | 0.00 | 0.00 | 0.00 | 65 | 1016.2 | |
| 20260904202906 | 68 | 0.0 | 0.0 | 0.00 | 0.00 | 0.00 | 64 | 1016.4 | |
| 20260904201106 | 68 | 0.0 | 0.0 | 0.00 | 0.00 | 0.00 | 64 | 1016.5 | |
| 20260904200204 | 67 | 0.0 | 1.0 | 0.00 | 0.00 | 0.00 | 63 | 1016.3 | |
| 20260904195325 | 68 | 0.0 | 0.0 | 0.00 | 0.00 | 0.00 | 62 | 1016.3 | |
| 20260904194422 | 68 | 0.0 | 1.0 | 0.00 | 0.00 | 0.00 | 62 | 1016.4 | |
| 20260904193522 | 69 | 0.0 | 0.0 | 0.00 | 0.00 | 0.00 | 61 | 1016.5 | |
| 20260904192601 | 69 | 0.0 | 1.0 | 0.00 | 0.00 | 0.00 | 61 | 1016.5 | |
| 20260904191700 | 69 | 0.0 | 1.0 | 0.00 | 0.00 | 0.00 | 60 | 1016.6 | |
| 20260904190800 | 69 | 0.0 | 0.0 | 0.00 | 0.00 | 0.00 | 59 | 1016.6 | |
| 20260904185900 | 70 | 0.0 | 0.0 | 0.00 | 0.00 | 0.00 | 56 | 1016.6 | |
| 20260904184058 | 70 | 0.0 | 0.0 | 0.00 | 0.00 | 0.00 | 55 | 1016.7 | |
| 20260904183157 | 70 | 0.0 | 0.0 | 0.00 | 0.00 | 0.00 | 54 | 1016.6 | |
| 20260904182256 | 71 | 0.0 | 0.0 | 0.00 | 0.00 | 0.00 | 52 | 1016.6 | |
| 20260904181356 | 71 | 0.0 | 0.0 | 0.00 | 0.00 | 0.00 | 50 | 1016.6 | |
| 20260904180456 | 72 | 0.0 | 0.0 | 0.00 | 0.00 | 0.00 | 49 | 1016.7 | |
| 20260904175554 | 72 | 0.0 | 0.0 | 0.00 | 0.00 | 0.00 | 49 | 1016.5 | |
| 20260904174653 | 73 | 0.0 | 0.0 | 0.00 | 0.00 | 0.00 | 48 | 1016.3 | |
| 20260904173813 | 73 | 0.0 | 1.0 | 0.00 | 0.00 | 0.00 | 47 | 1016.2 | |
| 20260904172852 | 74 | 0.0 | 1.0 | 0.00 | 0.00 | 0.00 | 45 | 1016.3 | |
| 20260904171111 | 75 | 0.0 | 1.0 | 0.00 | 0.00 | 0.00 | 43 | 1016.2 | |
| 20260904170150 | 75 | 0.0 | 0.0 | 0.00 | 0.00 | 0.00 | 41 | 1016.2 | |
| 20260904165251 | 76 | 0.0 | 1.0 | 0.00 | 0.00 | 0.00 | 38 | 1016.2 | |
| 20260904164429 | 77 | 0.0 | 1.0 | 0.00 | 0.00 | 0.00 | 36 | 1016.2 | |
| 20260904163448 | 78 | 0.0 | 0.0 | 0.00 | 0.00 | 0.00 | 34 | 1016.1 | |
| 20260904162549 | 78 | 0.0 | 1.0 | 0.00 | 0.00 | 0.00 | 33 | 1016.2 | |
| 20260904161707 | 79 | 0.0 | 1.0 | 0.00 | 0.00 | 0.00 | 32 | 1016.1 | |
| 20260904160746 | 80 | 0.0 | 2.0 | 0.00 | 0.00 | 0.00 | 30 | 1016.2 | |
| 20260904155845 | 81 | 0.0 | 1.0 | 0.00 | 0.00 | 0.00 | 29 | 1016.1 | |
| 20260904154046 | 81 | 0.0 | 1.0 | 0.00 | 0.00 | 0.00 | 27 | 1016.1 | |
| 20260904153143 | 82 | 0.0 | 2.0 | 0.00 | 0.00 | 0.00 | 27 | 1016.1 | |
| 20260904152243 | 82 | 0.0 | 2.0 | 0.00 | 0.00 | 0.00 | 26 | 1016.0 | |
| 20260904151342 | 82 | 0.0 | 1.0 | 0.00 | 0.00 | 0.00 | 26 | 1016.1 | |
| 20260904150441 | 83 | 0.0 | 2.0 | 0.00 | 0.00 | 0.00 | 25 | 1015.9 | |
| 20260904145600 | 83 | 0.0 | 2.0 | 0.00 | 0.00 | 0.00 | 24 | 1015.8 | |
| 20260904144639 | 83 | 135 | 1.0 | 2.0 | 0.00 | 0.00 | 0.00 | 22 | 1016.0 |
| 20260904143738 | 84 | 135 | 1.0 | 3.0 | 0.00 | 0.00 | 0.00 | 20 | 1016.0 |
| 20260904142838 | 85 | 113 | 0.0 | 2.0 | 0.00 | 0.00 | 0.00 | 18 | 1016.0 |
| 20260904141037 | 86 | 135 | 2.0 | 2.0 | 0.00 | 0.00 | 0.00 | 17 | 1016.0 |
| 20260904140137 | 87 | 0.0 | 2.0 | 0.00 | 0.00 | 0.00 | 17 | 1016.0 | |
| 20260904135235 | 87 | 113 | 1.0 | 2.0 | 0.00 | 0.00 | 0.00 | 15 | 1016.0 |
| 20260904134334 | 88 | 0.0 | 1.0 | 0.00 | 0.00 | 0.00 | 16 | 1016.0 | |
| 20260904133434 | 88 | 0.0 | 2.0 | 0.00 | 0.00 | 0.00 | 14 | 1016.0 | |
| 20260904132533 | 90 | 135 | 2.0 | 2.0 | 0.00 | 0.00 | 0.00 | 13 | 1016.1 |
| 20260904131632 | 91 | 135 | 1.0 | 4.0 | 0.00 | 0.00 | 0.00 | 11 | 1016.0 |
| 20260904130731 | 90 | 0.0 | 2.0 | 0.00 | 0.00 | 0.00 | 11 | 1016.1 | |
| 20260904125830 | 91 | 135 | 1.0 | 3.0 | 0.00 | 0.00 | 0.00 | 11 | 1016.0 |
| 20260904124029 | 91 | 158 | 2.0 | 3.0 | 0.00 | 0.00 | 0.00 | 11 | 1016.1 |
| 20260904123129 | 90 | 135 | 1.0 | 3.0 | 0.00 | 0.00 | 0.00 | 13 | 1016.1 |
| 20260904122222 | 90 | 0.0 | 2.0 | 0.00 | 0.00 | 0.00 | 14 | 1016.2 | |
| 20260904121321 | 91 | 0.0 | 2.0 | 0.00 | 0.00 | 0.00 | 12 | 1016.4 | |
| 20260904120421 | 91 | 135 | 2.0 | 4.0 | 0.00 | 0.00 | 0.00 | 11 | 1016.3 |
| 20260904115540 | 92 | 135 | 1.0 | 2.0 | 0.00 | 0.00 | 0.00 | 13 | 1016.3 |
| 20260904114619 | 89 | 113 | 1.0 | 2.0 | 0.00 | 0.00 | 0.00 | 16 | 1016.6 |
| 20260904113718 | 88 | 0.0 | 2.0 | 0.00 | 0.00 | 0.00 | 16 | 1016.7 | |
| 20260904112839 | 90 | 113 | 0.0 | 3.0 | 0.00 | 0.00 | 0.00 | 12 | 1016.8 |
| 20260904111017 | 90 | 0.0 | 2.0 | 0.00 | 0.00 | 0.00 | 15 | 1016.8 | |
| 20260904110118 | 88 | 113 | 1.0 | 2.0 | 0.00 | 0.00 | 0.00 | 16 | 1016.9 |
| 20260904105215 | 89 | 0.0 | 1.0 | 0.00 | 0.00 | 0.00 | 12 | 1017.2 | |
| 20260904104316 | 92 | 135 | 2.0 | 3.0 | 0.00 | 0.00 | 0.00 | 11 | 1017.3 |
| 20260904103415 | 92 | 113 | 2.0 | 6.0 | 0.00 | 0.00 | 0.00 | 13 | 1017.4 |
| 20260904102513 | 92 | 158 | 1.0 | 2.0 | 0.00 | 0.00 | 0.00 | 13 | 1017.4 |
| 20260904101613 | 93 | 0.0 | 2.0 | 0.00 | 0.00 | 0.00 | 12 | 1017.4 | |
| 20260904100712 | 93 | 135 | 2.0 | 3.0 | 0.00 | 0.00 | 0.00 | 13 | 1017.5 |
| 20260904095811 | 92 | 113 | 1.0 | 5.0 | 0.00 | 0.00 | 0.00 | 14 | 1017.5 |
| 20260904094911 | 92 | 135 | 1.0 | 2.0 | 0.00 | 0.00 | 0.00 | 15 | 1017.6 |
| 20260904093110 | 93 | 113 | 1.0 | 2.0 | 0.00 | 0.00 | 0.00 | 16 | 1017.8 |
| 20260904092210 | 92 | 0.0 | 2.0 | 0.00 | 0.00 | 0.00 | 19 | 1017.8 | |
| 20260904091309 | 91 | 0.0 | 1.0 | 0.00 | 0.00 | 0.00 | 21 | 1017.8 | |
| 20260904090430 | 90 | 0.0 | 2.0 | 0.00 | 0.00 | 0.00 | 22 | 1018.0 | |
| 20260904085508 | 88 | 158 | 1.0 | 3.0 | 0.00 | 0.00 | 0.00 | 27 | 1018.0 |
| 20260904084647 | 86 | 158 | 3.0 | 4.0 | 0.00 | 0.00 | 0.00 | 31 | 1018.1 |
| 20260904083706 | 86 | 0.0 | 1.0 | 0.00 | 0.00 | 0.00 | 31 | 1018.2 | |
| 20260904082805 | 85 | 0.0 | 3.0 | 0.00 | 0.00 | 0.00 | 37 | 1018.2 | |
| 20260904081904 | 82 | 0.0 | 1.0 | 0.00 | 0.00 | 0.00 | 42 | 1018.4 | |
| 20260904080104 | 80 | 135 | 1.0 | 2.0 | 0.00 | 0.00 | 0.00 | 43 | 1018.5 |
| 20260904075203 | 78 | 135 | 1.0 | 2.0 | 0.00 | 0.00 | 0.00 | 48 | 1018.5 |
| 20260904074304 | 77 | 0.0 | 2.0 | 0.00 | 0.00 | 0.00 | 50 | 1018.6 | |
| 20260904073402 | 76 | 0.0 | 2.0 | 0.00 | 0.00 | 0.00 | 53 | 1018.7 | |
| 20260904072501 | 74 | 1.0 | 2.0 | 0.00 | 0.00 | 0.00 | 56 | 1018.7 | |
| 20260904071600 | 74 | 0.0 | 2.0 | 0.00 | 0.00 | 0.00 | 57 | 1018.4 | |
| 20260904070701 | 73 | 135 | 1.0 | 3.0 | 0.00 | 0.00 | 0.00 | 57 | 1018.6 |
| 20260904065758 | 73 | 135 | 1.0 | 2.0 | 0.00 | 0.00 | 0.00 | 59 | 1018.6 |
| 20260904064858 | 72 | 135 | 1.0 | 3.0 | 0.00 | 0.00 | 0.00 | 61 | 1018.5 |
| 20260904063057 | 72 | 135 | 2.0 | 4.0 | 0.00 | 0.00 | 0.00 | 62 | 1018.6 |
| 20260904062156 | 71 | 135 | 1.0 | 2.0 | 0.00 | 0.00 | 0.00 | 66 | 1018.4 |
| 20260904061255 | 69 | 0.0 | 2.0 | 0.00 | 0.00 | 0.00 | 71 | 1018.3 | |
| 20260904060355 | 67 | 135 | 1.0 | 2.0 | 0.00 | 0.00 | 0.00 | 74 | 1018.4 |
| 20260904055454 | 67 | 0.0 | 1.0 | 0.00 | 0.00 | 0.00 | 73 | 1018.5 | |
| 20260904054555 | 67 | 158 | 1.0 | 3.0 | 0.00 | 0.00 | 0.00 | 74 | 1018.5 |
| 20260904053715 | 66 | 135 | 1.0 | 2.0 | 0.00 | 0.00 | 0.00 | 77 | 1018.4 |
| 20260904052752 | 64 | 0.0 | 0.0 | 0.00 | 0.00 | 0.00 | 84 | 1018.3 | |
| 20260904051851 | 62 | 0.0 | 0.0 | 0.00 | 0.00 | 0.00 | 88 | 1018.4 | |
| 20260904050052 | 61 | 0.0 | 0.0 | 0.00 | 0.00 | 0.00 | 89 | 1018.4 | |
| 20260904045150 | 60 | 0.0 | 0.0 | 0.00 | 0.00 | 0.00 | 89 | 1018.5 | |
| 20260904044249 | 60 | 0.0 | 0.0 | 0.00 | 0.00 | 0.00 | 89 | 1018.4 | |
| 20260904043349 | 59 | 0.0 | 0.0 | 0.00 | 0.00 | 0.00 | 89 | 1018.4 | |
| 20260904042529 | 59 | 0.0 | 0.0 | 0.00 | 0.00 | 0.00 | 89 | 1018.6 | |
| 20260904041547 | 58 | 0.0 | 0.0 | 0.00 | 0.00 | 0.00 | 89 | 1018.6 | |
| 20260904040647 | 58 | 0.0 | 0.0 | 0.00 | 0.00 | 0.00 | 88 | 1018.6 | |
| 20260904035746 | 58 | 0.0 | 0.0 | 0.00 | 0.00 | 0.00 | 88 | 1018.6 | |
| 20260904034845 | 58 | 0.0 | 0.0 | 0.00 | 0.00 | 0.00 | 88 | 1018.4 | |
| 20260904033044 | 58 | 0.0 | 0.0 | 0.00 | 0.00 | 0.00 | 88 | 1018.4 | |
| 20260904032146 | 59 | 0.0 | 0.0 | 0.00 | 0.00 | 0.00 | 88 | 1018.4 | |
| 20260904031243 | 59 | 0.0 | 0.0 | 0.00 | 0.00 | 0.00 | 88 | 1018.3 | |
| 20260904030344 | 59 | 0.0 | 1.0 | 0.00 | 0.01 | 0.00 | 88 | 1018.2 | |
| 20260904025442 | 59 | 0.0 | 0.0 | 0.00 | 0.06 | 0.00 | 88 | 1018.2 | |
| 20260904024541 | 59 | 0.0 | 0.0 | 0.00 | 0.08 | 0.00 | 88 | 1018.2 | |
| 20260904023641 | 59 | 0.0 | 0.0 | 0.00 | 0.08 | 0.00 | 88 | 1018.2 | |
| 20260904022740 | 59 | 0.0 | 0.0 | 0.00 | 0.08 | 0.00 | 87 | 1018.0 | |
| 20260904021839 | 58 | 0.0 | 0.0 | 0.00 | 0.08 | 0.00 | 87 | 1018.1 | |
| 20260904020038 | 58 | 0.0 | 0.0 | 0.00 | 0.08 | 0.00 | 87 | 1018.2 | |
| 20260904015137 | 58 | 0.0 | 0.0 | 0.00 | 0.08 | 0.00 | 86 | 1018.3 | |
| 20260904014257 | 58 | 0.0 | 0.0 | 0.00 | 0.08 | 0.00 | 86 | 1018.4 | |
| 20260904013417 | 59 | 0.0 | 0.0 | 0.00 | 0.08 | 0.00 | 86 | 1018.4 | |
| 20260904012435 | 59 | 0.0 | 0.0 | 0.00 | 0.08 | 0.00 | 86 | 1018.4 | |
| 20260904011555 | 59 | 0.0 | 0.0 | 0.00 | 0.08 | 0.00 | 85 | 1018.5 | |
| 20260904010634 | 59 | 0.0 | 0.0 | 0.00 | 0.08 | 0.00 | 85 | 1018.4 | |
| 20260904005735 | 60 | 0.0 | 0.0 | 0.00 | 0.08 | 0.00 | 85 | 1018.4 | |
| 20260904004832 | 60 | 0.0 | 0.0 | 0.00 | 0.08 | 0.00 | 85 | 1018.2 | |
| 20260904003032 | 60 | 0.0 | 0.0 | 0.00 | 0.08 | 0.00 | 84 | 1018.2 | |
| 20260904002131 | 60 | 0.0 | 0.0 | 0.00 | 0.08 | 0.00 | 84 | 1018.2 | |
| 20260904001232 | 60 | 0.0 | 0.0 | 0.00 | 0.08 | 0.00 | 83 | 1018.3 | |
| 20260904000330 | 60 | 0.0 | 0.0 | 0.00 | 0.08 | 0.00 | 83 | 1018.2 | |
| 20260903235429 | 60 | 0.0 | 0.0 | 0.00 | 0.08 | 0.00 | 83 | 1018.3 | |
| 20260903234515 | 61 | 0.0 | 0.0 | 0.00 | 0.08 | 0.00 | 82 | 1018.3 | |
| 20260903233615 | 61 | 0.0 | 0.0 | 0.00 | 0.08 | 0.00 | 82 | 1018.5 | |
| 20260903232714 | 61 | 0.0 | 0.0 | 0.00 | 0.08 | 0.00 | 81 | 1018.4 | |
| 20260903231813 | 61 | 0.0 | 0.0 | 0.00 | 0.08 | 0.00 | 81 | 1018.5 | |
| 20260903230913 | 62 | 0.0 | 0.0 | 0.00 | 0.08 | 0.00 | 80 | 1018.6 | |
| 20260903225112 | 62 | 0.0 | 0.0 | 0.00 | 0.08 | 0.00 | 79 | 1018.6 | |
| 20260903224211 | 63 | 0.0 | 0.0 | 0.00 | 0.08 | 0.00 | 79 | 1018.7 | |
| 20260903223310 | 63 | 0.0 | 0.0 | 0.00 | 0.08 | 0.00 | 78 | 1018.5 | |
| 20260903222429 | 64 | 0.0 | 0.0 | 0.00 | 0.08 | 0.00 | 78 | 1018.6 | |
| 20260903221509 | 64 | 0.0 | 0.0 | 0.00 | 0.08 | 0.00 | 78 | 1018.7 |